sensor_id;sensor_type;location;lat;lon;timestamp;temperature;humidity
60287;DHT22;46141;52.382;5.270;2022-09-25T00:00:29;19.80;76.30
60287;DHT22;46141;52.382;5.270;2022-09-25T00:02:55;19.70;76.30
60287;DHT22;46141;52.382;5.270;2022-09-25T00:05:20;19.80;76.30
60287;DHT22;46141;52.382;5.270;2022-09-25T00:07:46;19.70;76.30
60287;DHT22;46141;52.382;5.270;2022-09-25T00:10:12;19.70;76.30
60287;DHT22;46141;52.382;5.270;2022-09-25T00:12:38;19.70;76.20
60287;DHT22;46141;52.382;5.270;2022-09-25T00:15:06;19.70;76.20
60287;DHT22;46141;52.382;5.270;2022-09-25T00:17:32;19.70;76.30
60287;DHT22;46141;52.382;5.270;2022-09-25T00:19:58;19.70;76.20
60287;DHT22;46141;52.382;5.270;2022-09-25T00:22:24;19.70;76.20
60287;DHT22;46141;52.382;5.270;2022-09-25T00:24:49;19.70;76.10
60287;DHT22;46141;52.382;5.270;2022-09-25T00:27:16;19.60;76.10
60287;DHT22;46141;52.382;5.270;2022-09-25T00:29:42;19.60;76.10
60287;DHT22;46141;52.382;5.270;2022-09-25T00:32:09;19.70;76.20
60287;DHT22;46141;52.382;5.270;2022-09-25T00:34:36;19.60;76.10
60287;DHT22;46141;52.382;5.270;2022-09-25T00:37:02;19.60;76.10
60287;DHT22;46141;52.382;5.270;2022-09-25T00:39:27;19.60;76.10
60287;DHT22;46141;52.382;5.270;2022-09-25T00:41:53;19.70;76.10
60287;DHT22;46141;52.382;5.270;2022-09-25T00:52:51;19.60;76.00
60287;DHT22;46141;52.382;5.270;2022-09-25T00:55:17;19.60;76.10
60287;DHT22;46141;52.382;5.270;2022-09-25T00:57:47;19.60;76.00
60287;DHT22;46141;52.382;5.270;2022-09-25T01:00:15;19.60;76.00
60287;DHT22;46141;52.382;5.270;2022-09-25T01:02:46;19.60;76.00
60287;DHT22;46141;52.382;5.270;2022-09-25T01:05:18;19.60;76.10
60287;DHT22;46141;52.382;5.270;2022-09-25T01:07:47;19.60;76.00
60287;DHT22;46141;52.382;5.270;2022-09-25T01:10:14;19.50;76.00
60287;DHT22;46141;52.382;5.270;2022-09-25T01:12:43;19.50;76.00
60287;DHT22;46141;52.382;5.270;2022-09-25T01:15:11;19.50;76.60
60287;DHT22;46141;52.382;5.270;2022-09-25T01:20:49;19.50;76.00
60287;DHT22;46141;52.382;5.270;2022-09-25T01:32:14;19.50;75.90
60287;DHT22;46141;52.382;5.270;2022-09-25T01:34:47;19.50;75.90
60287;DHT22;46141;52.382;5.270;2022-09-25T01:40:27;19.50;75.90
60287;DHT22;46141;52.382;5.270;2022-09-25T01:43:06;19.40;75.90
60287;DHT22;46141;52.382;5.270;2022-09-25T01:45:45;19.40;75.90
60287;DHT22;46141;52.382;5.270;2022-09-25T01:48:17;19.40;75.90
60287;DHT22;46141;52.382;5.270;2022-09-25T01:51:18;19.40;75.90
60287;DHT22;46141;52.382;5.270;2022-09-25T01:53:49;19.40;75.90
60287;DHT22;46141;52.382;5.270;2022-09-25T01:56:25;19.40;75.80
60287;DHT22;46141;52.382;5.270;2022-09-25T01:58:58;19.40;75.80
60287;DHT22;46141;52.382;5.270;2022-09-25T02:01:31;19.40;75.80
60287;DHT22;46141;52.382;5.270;2022-09-25T02:04:06;19.30;75.70
60287;DHT22;46141;52.382;5.270;2022-09-25T02:06:37;19.40;75.70
60287;DHT22;46141;52.382;5.270;2022-09-25T02:09:10;19.40;75.70
60287;DHT22;46141;52.382;5.270;2022-09-25T02:11:44;19.30;75.70
60287;DHT22;46141;52.382;5.270;2022-09-25T02:16:49;19.30;75.70
60287;DHT22;46141;52.382;5.270;2022-09-25T02:19:18;19.30;75.70
60287;DHT22;46141;52.382;5.270;2022-09-25T02:26:55;19.30;75.80
60287;DHT22;46141;52.382;5.270;2022-09-25T02:29:21;19.30;75.60
60287;DHT22;46141;52.382;5.270;2022-09-25T02:31:52;19.30;75.60
60287;DHT22;46141;52.382;5.270;2022-09-25T02:34:21;19.20;75.50
60287;DHT22;46141;52.382;5.270;2022-09-25T02:36:46;19.30;75.50
60287;DHT22;46141;52.382;5.270;2022-09-25T02:39:16;19.30;75.30
60287;DHT22;46141;52.382;5.270;2022-09-25T02:50:35;19.20;75.50
60287;DHT22;46141;52.382;5.270;2022-09-25T03:01:02;19.20;75.20
60287;DHT22;46141;52.382;5.270;2022-09-25T03:03:31;19.20;75.10
60287;DHT22;46141;52.382;5.270;2022-09-25T03:06:00;19.20;75.20
60287;DHT22;46141;52.382;5.270;2022-09-25T03:08:27;19.10;75.10
60287;DHT22;46141;52.382;5.270;2022-09-25T03:10:53;19.20;75.10
60287;DHT22;46141;52.382;5.270;2022-09-25T03:13:22;19.10;75.00
60287;DHT22;46141;52.382;5.270;2022-09-25T03:15:56;19.10;75.00
60287;DHT22;46141;52.382;5.270;2022-09-25T03:18:22;19.10;75.00
60287;DHT22;46141;52.382;5.270;2022-09-25T03:20:47;19.10;74.90
60287;DHT22;46141;52.382;5.270;2022-09-25T03:23:13;19.10;74.90
60287;DHT22;46141;52.382;5.270;2022-09-25T03:25:38;19.10;75.00
60287;DHT22;46141;52.382;5.270;2022-09-25T03:28:10;19.10;75.50
60287;DHT22;46141;52.382;5.270;2022-09-25T03:30:38;19.10;74.80
60287;DHT22;46141;52.382;5.270;2022-09-25T03:33:04;19.10;74.70
60287;DHT22;46141;52.382;5.270;2022-09-25T03:35:29;19.10;74.80
60287;DHT22;46141;52.382;5.270;2022-09-25T03:37:55;19.00;74.80
60287;DHT22;46141;52.382;5.270;2022-09-25T03:40:20;19.00;74.80
60287;DHT22;46141;52.382;5.270;2022-09-25T03:42:46;19.00;74.80
60287;DHT22;46141;52.382;5.270;2022-09-25T03:45:12;19.00;74.70
60287;DHT22;46141;52.382;5.270;2022-09-25T03:47:38;19.00;74.70
60287;DHT22;46141;52.382;5.270;2022-09-25T03:50:04;19.00;74.70
60287;DHT22;46141;52.382;5.270;2022-09-25T03:52:31;19.00;74.70
60287;DHT22;46141;52.382;5.270;2022-09-25T03:54:57;19.00;74.60
60287;DHT22;46141;52.382;5.270;2022-09-25T03:57:22;19.00;74.40
60287;DHT22;46141;52.382;5.270;2022-09-25T03:59:48;19.00;74.40
60287;DHT22;46141;52.382;5.270;2022-09-25T04:02:13;19.00;74.40
60287;DHT22;46141;52.382;5.270;2022-09-25T04:04:39;19.00;74.40
60287;DHT22;46141;52.382;5.270;2022-09-25T04:07:04;19.00;74.40
60287;DHT22;46141;52.382;5.270;2022-09-25T04:09:30;19.00;74.30
60287;DHT22;46141;52.382;5.270;2022-09-25T04:11:56;18.90;74.70
60287;DHT22;46141;52.382;5.270;2022-09-25T04:14:21;18.90;74.30
60287;DHT22;46141;52.382;5.270;2022-09-25T04:16:47;18.90;74.20
60287;DHT22;46141;52.382;5.270;2022-09-25T04:19:13;18.90;74.30
60287;DHT22;46141;52.382;5.270;2022-09-25T04:21:38;18.90;74.30
60287;DHT22;46141;52.382;5.270;2022-09-25T04:24:04;18.90;74.30
60287;DHT22;46141;52.382;5.270;2022-09-25T04:26:31;18.90;74.20
60287;DHT22;46141;52.382;5.270;2022-09-25T04:28:56;18.90;74.20
60287;DHT22;46141;52.382;5.270;2022-09-25T04:31:22;18.80;74.10
60287;DHT22;46141;52.382;5.270;2022-09-25T04:33:47;18.90;74.10
60287;DHT22;46141;52.382;5.270;2022-09-25T04:36:14;18.80;74.10
60287;DHT22;46141;52.382;5.270;2022-09-25T04:38:40;18.90;74.10
60287;DHT22;46141;52.382;5.270;2022-09-25T04:41:06;18.80;74.00
60287;DHT22;46141;52.382;5.270;2022-09-25T04:43:32;18.80;74.00
60287;DHT22;46141;52.382;5.270;2022-09-25T04:46:02;18.80;74.00
60287;DHT22;46141;52.382;5.270;2022-09-25T04:48:28;18.80;74.00
60287;DHT22;46141;52.382;5.270;2022-09-25T04:50:53;18.80;74.00
60287;DHT22;46141;52.382;5.270;2022-09-25T04:53:19;18.80;74.00
60287;DHT22;46141;52.382;5.270;2022-09-25T04:55:45;18.70;73.80
60287;DHT22;46141;52.382;5.270;2022-09-25T04:58:10;18.80;73.90
60287;DHT22;46141;52.382;5.270;2022-09-25T05:00:36;18.70;73.90
60287;DHT22;46141;52.382;5.270;2022-09-25T05:03:02;18.80;73.90
60287;DHT22;46141;52.382;5.270;2022-09-25T05:05:29;18.80;73.80
60287;DHT22;46141;52.382;5.270;2022-09-25T05:07:58;18.70;73.90
60287;DHT22;46141;52.382;5.270;2022-09-25T05:10:26;18.70;73.80
60287;DHT22;46141;52.382;5.270;2022-09-25T05:13:00;18.70;73.80
60287;DHT22;46141;52.382;5.270;2022-09-25T05:15:28;18.70;73.80
60287;DHT22;46141;52.382;5.270;2022-09-25T05:18:06;18.70;73.80
60287;DHT22;46141;52.382;5.270;2022-09-25T05:20:34;18.70;73.80
60287;DHT22;46141;52.382;5.270;2022-09-25T05:23:00;18.70;73.70
60287;DHT22;46141;52.382;5.270;2022-09-25T05:25:26;18.70;73.70
60287;DHT22;46141;52.382;5.270;2022-09-25T05:27:52;18.70;73.80
60287;DHT22;46141;52.382;5.270;2022-09-25T05:30:18;18.70;73.70
60287;DHT22;46141;52.382;5.270;2022-09-25T05:32:48;18.60;73.60
60287;DHT22;46141;52.382;5.270;2022-09-25T05:35:18;18.60;73.60
60287;DHT22;46141;52.382;5.270;2022-09-25T05:37:44;18.60;73.60
60287;DHT22;46141;52.382;5.270;2022-09-25T05:40:10;18.60;73.60
60287;DHT22;46141;52.382;5.270;2022-09-25T05:42:36;18.60;73.60
60287;DHT22;46141;52.382;5.270;2022-09-25T05:45:01;18.60;73.50
60287;DHT22;46141;52.382;5.270;2022-09-25T05:47:27;18.60;73.60
60287;DHT22;46141;52.382;5.270;2022-09-25T05:49:52;18.60;73.50
60287;DHT22;46141;52.382;5.270;2022-09-25T05:52:18;18.60;73.50
60287;DHT22;46141;52.382;5.270;2022-09-25T05:54:43;18.60;73.60
60287;DHT22;46141;52.382;5.270;2022-09-25T05:57:09;18.50;73.60
60287;DHT22;46141;52.382;5.270;2022-09-25T05:59:35;18.60;73.50
60287;DHT22;46141;52.382;5.270;2022-09-25T06:02:00;18.50;73.70
60287;DHT22;46141;52.382;5.270;2022-09-25T06:04:26;18.60;73.60
60287;DHT22;46141;52.382;5.270;2022-09-25T06:06:51;18.60;73.60
60287;DHT22;46141;52.382;5.270;2022-09-25T06:09:17;18.60;73.60
60287;DHT22;46141;52.382;5.270;2022-09-25T06:11:43;18.50;73.60
60287;DHT22;46141;52.382;5.270;2022-09-25T06:14:08;18.50;73.60
60287;DHT22;46141;52.382;5.270;2022-09-25T06:16:34;18.50;73.60
60287;DHT22;46141;52.382;5.270;2022-09-25T06:18:59;18.50;73.70
60287;DHT22;46141;52.382;5.270;2022-09-25T06:21:25;18.50;73.60
60287;DHT22;46141;52.382;5.270;2022-09-25T06:23:50;18.60;73.70
60287;DHT22;46141;52.382;5.270;2022-09-25T06:26:16;18.60;73.70
60287;DHT22;46141;52.382;5.270;2022-09-25T06:28:41;18.50;73.80
60287;DHT22;46141;52.382;5.270;2022-09-25T06:31:07;18.60;73.70
60287;DHT22;46141;52.382;5.270;2022-09-25T06:33:33;18.50;73.70
60287;DHT22;46141;52.382;5.270;2022-09-25T06:35:58;18.60;73.70
60287;DHT22;46141;52.382;5.270;2022-09-25T06:38:24;18.60;73.40
60287;DHT22;46141;52.382;5.270;2022-09-25T06:40:49;18.60;73.30
60287;DHT22;46141;52.382;5.270;2022-09-25T06:43:15;18.60;73.20
60287;DHT22;46141;52.382;5.270;2022-09-25T06:45:42;18.60;73.10
60287;DHT22;46141;52.382;5.270;2022-09-25T06:48:12;18.60;73.20
60287;DHT22;46141;52.382;5.270;2022-09-25T06:50:53;18.60;73.30
60287;DHT22;46141;52.382;5.270;2022-09-25T06:53:20;18.60;73.20
60287;DHT22;46141;52.382;5.270;2022-09-25T06:55:46;18.70;73.10
60287;DHT22;46141;52.382;5.270;2022-09-25T06:58:23;18.60;73.10
60287;DHT22;46141;52.382;5.270;2022-09-25T07:00:50;18.70;73.00
60287;DHT22;46141;52.382;5.270;2022-09-25T07:03:16;18.70;72.90
60287;DHT22;46141;52.382;5.270;2022-09-25T07:05:42;18.70;72.80
60287;DHT22;46141;52.382;5.270;2022-09-25T07:08:08;18.70;72.80
60287;DHT22;46141;52.382;5.270;2022-09-25T07:10:52;18.70;72.90
60287;DHT22;46141;52.382;5.270;2022-09-25T07:13:20;18.70;72.70
60287;DHT22;46141;52.382;5.270;2022-09-25T07:16:00;18.70;72.90
60287;DHT22;46141;52.382;5.270;2022-09-25T07:18:27;18.70;73.00
60287;DHT22;46141;52.382;5.270;2022-09-25T07:20:59;18.70;72.80
60287;DHT22;46141;52.382;5.270;2022-09-25T07:23:25;18.70;72.80
60287;DHT22;46141;52.382;5.270;2022-09-25T07:25:50;18.80;72.80
60287;DHT22;46141;52.382;5.270;2022-09-25T07:28:17;18.70;72.80
60287;DHT22;46141;52.382;5.270;2022-09-25T07:30:42;18.70;72.80
60287;DHT22;46141;52.382;5.270;2022-09-25T07:33:08;18.80;73.00
60287;DHT22;46141;52.382;5.270;2022-09-25T07:35:35;18.80;72.90
60287;DHT22;46141;52.382;5.270;2022-09-25T07:38:01;18.80;72.80
60287;DHT22;46141;52.382;5.270;2022-09-25T07:40:26;18.90;72.80
60287;DHT22;46141;52.382;5.270;2022-09-25T07:42:59;18.90;72.80
60287;DHT22;46141;52.382;5.270;2022-09-25T07:45:24;18.90;72.90
60287;DHT22;46141;52.382;5.270;2022-09-25T07:47:54;19.00;72.80
60287;DHT22;46141;52.382;5.270;2022-09-25T07:50:19;19.00;72.90
60287;DHT22;46141;52.382;5.270;2022-09-25T07:52:45;19.00;72.90
60287;DHT22;46141;52.382;5.270;2022-09-25T07:55:10;19.00;72.80
60287;DHT22;46141;52.382;5.270;2022-09-25T07:57:36;19.00;72.70
60287;DHT22;46141;52.382;5.270;2022-09-25T08:00:01;19.00;72.70
60287;DHT22;46141;52.382;5.270;2022-09-25T08:02:27;19.00;72.60
60287;DHT22;46141;52.382;5.270;2022-09-25T08:04:52;19.00;73.20
60287;DHT22;46141;52.382;5.270;2022-09-25T08:07:18;19.10;72.50
60287;DHT22;46141;52.382;5.270;2022-09-25T08:09:43;19.10;72.60
60287;DHT22;46141;52.382;5.270;2022-09-25T08:12:10;19.10;72.60
60287;DHT22;46141;52.382;5.270;2022-09-25T08:14:36;19.10;72.70
60287;DHT22;46141;52.382;5.270;2022-09-25T08:17:01;19.10;72.50
60287;DHT22;46141;52.382;5.270;2022-09-25T08:19:27;19.10;72.40
60287;DHT22;46141;52.382;5.270;2022-09-25T08:21:52;19.20;72.50
60287;DHT22;46141;52.382;5.270;2022-09-25T08:24:18;19.20;72.40
60287;DHT22;46141;52.382;5.270;2022-09-25T08:26:43;19.20;72.30
60287;DHT22;46141;52.382;5.270;2022-09-25T08:29:10;19.20;72.30
60287;DHT22;46141;52.382;5.270;2022-09-25T08:31:36;19.30;72.30
60287;DHT22;46141;52.382;5.270;2022-09-25T08:34:01;19.30;72.30
60287;DHT22;46141;52.382;5.270;2022-09-25T08:36:27;19.40;72.30
60287;DHT22;46141;52.382;5.270;2022-09-25T08:38:52;19.40;72.30
60287;DHT22;46141;52.382;5.270;2022-09-25T08:47:21;19.50;72.30
60287;DHT22;46141;52.382;5.270;2022-09-25T08:50:15;19.50;72.50
60287;DHT22;46141;52.382;5.270;2022-09-25T08:52:47;19.60;72.20
60287;DHT22;46141;52.382;5.270;2022-09-25T08:55:24;19.60;72.10
60287;DHT22;46141;52.382;5.270;2022-09-25T08:57:52;19.60;72.00
60287;DHT22;46141;52.382;5.270;2022-09-25T09:00:20;19.60;72.10
60287;DHT22;46141;52.382;5.270;2022-09-25T09:02:53;19.60;72.00
60287;DHT22;46141;52.382;5.270;2022-09-25T09:05:26;19.70;71.90
60287;DHT22;46141;52.382;5.270;2022-09-25T09:08:08;19.70;71.90
60287;DHT22;46141;52.382;5.270;2022-09-25T09:10:44;19.80;71.90
60287;DHT22;46141;52.382;5.270;2022-09-25T09:13:33;19.80;71.90
60287;DHT22;46141;52.382;5.270;2022-09-25T09:18:30;19.90;72.30
60287;DHT22;46141;52.382;5.270;2022-09-25T09:21:00;19.90;72.00
60287;DHT22;46141;52.382;5.270;2022-09-25T09:45:53;20.30;70.90
60287;DHT22;46141;52.382;5.270;2022-09-25T09:51:12;20.50;70.70
60287;DHT22;46141;52.382;5.270;2022-09-25T09:53:54;20.50;70.70
60287;DHT22;46141;52.382;5.270;2022-09-25T09:56:30;20.50;70.60
60287;DHT22;46141;52.382;5.270;2022-09-25T09:58:57;20.60;70.40
60287;DHT22;46141;52.382;5.270;2022-09-25T10:01:28;20.60;70.20
60287;DHT22;46141;52.382;5.270;2022-09-25T10:04:22;20.70;70.10
60287;DHT22;46141;52.382;5.270;2022-09-25T10:07:16;20.70;69.90
60287;DHT22;46141;52.382;5.270;2022-09-25T10:09:44;20.80;69.60
60287;DHT22;46141;52.382;5.270;2022-09-25T10:12:26;20.90;69.50
60287;DHT22;46141;52.382;5.270;2022-09-25T10:14:53;21.00;69.60
60287;DHT22;46141;52.382;5.270;2022-09-25T10:17:19;21.00;69.30
60287;DHT22;46141;52.382;5.270;2022-09-25T10:19:55;21.00;69.20
60287;DHT22;46141;52.382;5.270;2022-09-25T10:22:36;21.10;68.90
60287;DHT22;46141;52.382;5.270;2022-09-25T10:25:03;21.10;68.70
60287;DHT22;46141;52.382;5.270;2022-09-25T10:27:42;21.10;68.60
60287;DHT22;46141;52.382;5.270;2022-09-25T10:32:56;21.30;68.60
60287;DHT22;46141;52.382;5.270;2022-09-25T10:35:39;21.30;68.60
60287;DHT22;46141;52.382;5.270;2022-09-25T10:41:18;21.40;68.30
60287;DHT22;46141;52.382;5.270;2022-09-25T10:44:01;21.30;68.20
60287;DHT22;46141;52.382;5.270;2022-09-25T10:46:31;21.40;68.20
60287;DHT22;46141;52.382;5.270;2022-09-25T10:49:16;21.40;68.20
60287;DHT22;46141;52.382;5.270;2022-09-25T10:52:01;21.40;68.00
60287;DHT22;46141;52.382;5.270;2022-09-25T10:54:27;21.40;68.00
60287;DHT22;46141;52.382;5.270;2022-09-25T10:56:53;21.40;67.90
60287;DHT22;46141;52.382;5.270;2022-09-25T10:59:20;21.50;67.70
60287;DHT22;46141;52.382;5.270;2022-09-25T11:01:49;21.60;68.20
60287;DHT22;46141;52.382;5.270;2022-09-25T11:04:23;21.60;67.20
60287;DHT22;46141;52.382;5.270;2022-09-25T11:06:52;21.60;67.10
60287;DHT22;46141;52.382;5.270;2022-09-25T11:09:29;21.50;67.30
60287;DHT22;46141;52.382;5.270;2022-09-25T11:12:14;21.50;67.60
60287;DHT22;46141;52.382;5.270;2022-09-25T11:14:46;21.50;68.30
60287;DHT22;46141;52.382;5.270;2022-09-25T11:17:38;21.50;68.60
60287;DHT22;46141;52.382;5.270;2022-09-25T11:20:19;21.50;68.00
60287;DHT22;46141;52.382;5.270;2022-09-25T11:25:40;21.50;68.90
60287;DHT22;46141;52.382;5.270;2022-09-25T11:28:23;21.40;69.20
60287;DHT22;46141;52.382;5.270;2022-09-25T11:36:35;21.30;69.70
60287;DHT22;46141;52.382;5.270;2022-09-25T11:39:14;21.30;69.50
60287;DHT22;46141;52.382;5.270;2022-09-25T11:41:50;21.20;70.40
60287;DHT22;46141;52.382;5.270;2022-09-25T11:47:16;21.20;69.70
60287;DHT22;46141;52.382;5.270;2022-09-25T11:49:48;21.20;69.70
60287;DHT22;46141;52.382;5.270;2022-09-25T12:03:23;21.00;69.60
60287;DHT22;46141;52.382;5.270;2022-09-25T12:11:27;20.90;69.40
60287;DHT22;46141;52.382;5.270;2022-09-25T12:17:31;21.00;69.50
60287;DHT22;46141;52.382;5.270;2022-09-25T12:20:37;21.00;69.80
60287;DHT22;46141;52.382;5.270;2022-09-25T12:23:14;21.10;69.80
60287;DHT22;46141;52.382;5.270;2022-09-25T12:39:56;21.20;70.70
60287;DHT22;46141;52.382;5.270;2022-09-25T12:42:54;21.10;70.40
60287;DHT22;46141;52.382;5.270;2022-09-25T12:45:42;21.20;70.10
60287;DHT22;46141;52.382;5.270;2022-09-25T12:51:37;21.30;69.90
60287;DHT22;46141;52.382;5.270;2022-09-25T12:57:03;21.50;69.50
60287;DHT22;46141;52.382;5.270;2022-09-25T13:05:18;21.90;68.90
60287;DHT22;46141;52.382;5.270;2022-09-25T13:10:35;22.10;68.80
60287;DHT22;46141;52.382;5.270;2022-09-25T13:13:08;22.10;68.60
60287;DHT22;46141;52.382;5.270;2022-09-25T13:15:37;22.20;68.60
60287;DHT22;46141;52.382;5.270;2022-09-25T13:18:05;22.30;68.50
60287;DHT22;46141;52.382;5.270;2022-09-25T13:23:09;22.40;68.30
60287;DHT22;46141;52.382;5.270;2022-09-25T13:25:49;22.50;68.20
60287;DHT22;46141;52.382;5.270;2022-09-25T13:28:22;22.60;68.10
60287;DHT22;46141;52.382;5.270;2022-09-25T13:31:12;22.60;68.00
60287;DHT22;46141;52.382;5.270;2022-09-25T13:33:48;22.70;67.80
60287;DHT22;46141;52.382;5.270;2022-09-25T13:36:48;22.70;67.90
60287;DHT22;46141;52.382;5.270;2022-09-25T13:42:03;22.70;68.00
60287;DHT22;46141;52.382;5.270;2022-09-25T14:00:22;22.80;68.90
60287;DHT22;46141;52.382;5.270;2022-09-25T14:02:48;22.80;68.70
60287;DHT22;46141;52.382;5.270;2022-09-25T14:05:18;22.80;68.70
60287;DHT22;46141;52.382;5.270;2022-09-25T14:07:48;22.80;68.70
60287;DHT22;46141;52.382;5.270;2022-09-25T14:10:17;22.80;68.80
60287;DHT22;46141;52.382;5.270;2022-09-25T14:12:46;22.80;68.90
60287;DHT22;46141;52.382;5.270;2022-09-25T14:15:37;22.70;69.10
60287;DHT22;46141;52.382;5.270;2022-09-25T14:18:15;22.60;69.20
60287;DHT22;46141;52.382;5.270;2022-09-25T14:20:46;22.60;69.40
60287;DHT22;46141;52.382;5.270;2022-09-25T14:23:22;22.60;69.70
60287;DHT22;46141;52.382;5.270;2022-09-25T14:25:57;22.60;69.80
60287;DHT22;46141;52.382;5.270;2022-09-25T14:28:27;22.50;69.80
60287;DHT22;46141;52.382;5.270;2022-09-25T14:31:15;22.50;70.00
60287;DHT22;46141;52.382;5.270;2022-09-25T14:36:46;22.50;70.30
60287;DHT22;46141;52.382;5.270;2022-09-25T14:47:45;22.30;71.10
60287;DHT22;46141;52.382;5.270;2022-09-25T14:50:24;22.20;71.10
60287;DHT22;46141;52.382;5.270;2022-09-25T14:53:00;22.20;71.20
60287;DHT22;46141;52.382;5.270;2022-09-25T14:55:35;22.30;71.40
60287;DHT22;46141;52.382;5.270;2022-09-25T14:58:07;22.20;71.40
60287;DHT22;46141;52.382;5.270;2022-09-25T15:00:34;22.20;71.80
60287;DHT22;46141;52.382;5.270;2022-09-25T15:03:01;22.20;71.70
60287;DHT22;46141;52.382;5.270;2022-09-25T15:05:30;22.20;72.00
60287;DHT22;46141;52.382;5.270;2022-09-25T15:07:58;22.20;72.00
60287;DHT22;46141;52.382;5.270;2022-09-25T15:13:05;22.20;71.90
60287;DHT22;46141;52.382;5.270;2022-09-25T15:15:31;22.20;71.80
60287;DHT22;46141;52.382;5.270;2022-09-25T15:17:58;22.10;71.70
60287;DHT22;46141;52.382;5.270;2022-09-25T15:20:31;22.10;71.60
60287;DHT22;46141;52.382;5.270;2022-09-25T15:22:59;22.10;71.60
60287;DHT22;46141;52.382;5.270;2022-09-25T15:25:42;22.10;71.50
60287;DHT22;46141;52.382;5.270;2022-09-25T15:28:15;22.00;71.60
60287;DHT22;46141;52.382;5.270;2022-09-25T15:30:41;22.00;71.30
60287;DHT22;46141;52.382;5.270;2022-09-25T15:33:27;22.00;71.40
60287;DHT22;46141;52.382;5.270;2022-09-25T15:38:31;22.00;71.50
60287;DHT22;46141;52.382;5.270;2022-09-25T15:40:57;21.90;71.30
60287;DHT22;46141;52.382;5.270;2022-09-25T15:43:23;21.90;71.30
60287;DHT22;46141;52.382;5.270;2022-09-25T15:48:30;21.90;71.50
60287;DHT22;46141;52.382;5.270;2022-09-25T15:51:01;21.90;71.90
60287;DHT22;46141;52.382;5.270;2022-09-25T15:53:36;21.90;72.20
60287;DHT22;46141;52.382;5.270;2022-09-25T15:56:16;21.80;72.50
60287;DHT22;46141;52.382;5.270;2022-09-25T16:01:34;21.70;72.90
60287;DHT22;46141;52.382;5.270;2022-09-25T16:04:00;21.70;73.40
60287;DHT22;46141;52.382;5.270;2022-09-25T16:06:29;21.80;73.50
60287;DHT22;46141;52.382;5.270;2022-09-25T16:09:18;21.80;73.50
60287;DHT22;46141;52.382;5.270;2022-09-25T16:11:45;21.80;73.70
60287;DHT22;46141;52.382;5.270;2022-09-25T16:14:18;21.90;74.00
60287;DHT22;46141;52.382;5.270;2022-09-25T16:16:46;21.90;74.40
60287;DHT22;46141;52.382;5.270;2022-09-25T16:21:45;21.90;74.70
60287;DHT22;46141;52.382;5.270;2022-09-25T16:24:18;21.90;74.90
60287;DHT22;46141;52.382;5.270;2022-09-25T16:26:45;21.90;75.10
60287;DHT22;46141;52.382;5.270;2022-09-25T16:29:26;21.90;76.40
60287;DHT22;46141;52.382;5.270;2022-09-25T16:32:00;21.90;76.70
60287;DHT22;46141;52.382;5.270;2022-09-25T16:34:29;22.00;76.10
60287;DHT22;46141;52.382;5.270;2022-09-25T16:36:59;22.00;75.80
60287;DHT22;46141;52.382;5.270;2022-09-25T16:39:26;22.00;75.60
60287;DHT22;46141;52.382;5.270;2022-09-25T16:41:52;21.90;75.60
60287;DHT22;46141;52.382;5.270;2022-09-25T16:44:35;21.90;75.60
60287;DHT22;46141;52.382;5.270;2022-09-25T16:49:31;21.90;75.60
60287;DHT22;46141;52.382;5.270;2022-09-25T16:51:57;21.90;75.50
60287;DHT22;46141;52.382;5.270;2022-09-25T16:54:23;21.80;75.40
60287;DHT22;46141;52.382;5.270;2022-09-25T16:56:48;21.70;75.60
60287;DHT22;46141;52.382;5.270;2022-09-25T17:01:41;21.70;75.60
60287;DHT22;46141;52.382;5.270;2022-09-25T17:04:09;21.80;76.10
60287;DHT22;46141;52.382;5.270;2022-09-25T17:06:34;21.70;75.80
60287;DHT22;46141;52.382;5.270;2022-09-25T17:09:00;21.70;75.80
60287;DHT22;46141;52.382;5.270;2022-09-25T17:11:26;21.70;76.00
60287;DHT22;46141;52.382;5.270;2022-09-25T17:13:52;21.60;76.30
60287;DHT22;46141;52.382;5.270;2022-09-25T17:16:17;21.60;76.70
60287;DHT22;46141;52.382;5.270;2022-09-25T17:18:43;21.60;76.80
60287;DHT22;46141;52.382;5.270;2022-09-25T17:21:13;21.50;76.50
60287;DHT22;46141;52.382;5.270;2022-09-25T17:23:40;21.50;76.80
60287;DHT22;46141;52.382;5.270;2022-09-25T17:26:15;21.50;76.50
60287;DHT22;46141;52.382;5.270;2022-09-25T17:28:41;21.50;77.20
60287;DHT22;46141;52.382;5.270;2022-09-25T17:31:13;21.40;76.40
60287;DHT22;46141;52.382;5.270;2022-09-25T17:33:39;21.40;76.40
60287;DHT22;46141;52.382;5.270;2022-09-25T17:36:06;21.40;76.60
60287;DHT22;46141;52.382;5.270;2022-09-25T17:38:34;21.40;77.10
60287;DHT22;46141;52.382;5.270;2022-09-25T17:41:02;21.30;76.60
60287;DHT22;46141;52.382;5.270;2022-09-25T17:43:28;21.30;76.60
60287;DHT22;46141;52.382;5.270;2022-09-25T17:45:58;21.30;76.50
60287;DHT22;46141;52.382;5.270;2022-09-25T17:48:27;21.30;76.40
60287;DHT22;46141;52.382;5.270;2022-09-25T17:50:58;21.30;76.40
60287;DHT22;46141;52.382;5.270;2022-09-25T17:53:31;21.40;76.30
60287;DHT22;46141;52.382;5.270;2022-09-25T17:55:58;21.30;76.00
60287;DHT22;46141;52.382;5.270;2022-09-25T17:58:26;21.30;76.00
60287;DHT22;46141;52.382;5.270;2022-09-25T18:00:53;21.30;76.10
60287;DHT22;46141;52.382;5.270;2022-09-25T18:03:20;21.30;76.00
60287;DHT22;46141;52.382;5.270;2022-09-25T18:05:46;21.30;76.10
60287;DHT22;46141;52.382;5.270;2022-09-25T18:08:12;21.30;76.20
60287;DHT22;46141;52.382;5.270;2022-09-25T18:10:39;21.20;76.20
60287;DHT22;46141;52.382;5.270;2022-09-25T18:13:09;21.20;76.40
60287;DHT22;46141;52.382;5.270;2022-09-25T18:15:36;21.20;76.70
60287;DHT22;46141;52.382;5.270;2022-09-25T18:18:05;21.30;76.40
60287;DHT22;46141;52.382;5.270;2022-09-25T18:20:31;21.30;76.20
60287;DHT22;46141;52.382;5.270;2022-09-25T18:22:56;21.30;76.20
60287;DHT22;46141;52.382;5.270;2022-09-25T18:25:22;21.20;76.80
60287;DHT22;46141;52.382;5.270;2022-09-25T18:27:48;21.20;76.30
60287;DHT22;46141;52.382;5.270;2022-09-25T18:30:19;21.20;76.30
60287;DHT22;46141;52.382;5.270;2022-09-25T18:32:45;21.10;76.30
60287;DHT22;46141;52.382;5.270;2022-09-25T18:35:14;21.10;76.30
60287;DHT22;46141;52.382;5.270;2022-09-25T18:37:40;21.10;76.20
60287;DHT22;46141;52.382;5.270;2022-09-25T18:40:07;21.10;76.20
60287;DHT22;46141;52.382;5.270;2022-09-25T18:42:32;21.10;76.20
60287;DHT22;46141;52.382;5.270;2022-09-25T18:44:58;21.10;76.10
60287;DHT22;46141;52.382;5.270;2022-09-25T18:47:24;21.10;76.10
60287;DHT22;46141;52.382;5.270;2022-09-25T18:49:49;21.10;76.10
60287;DHT22;46141;52.382;5.270;2022-09-25T18:52:15;21.10;76.10
60287;DHT22;46141;52.382;5.270;2022-09-25T18:54:41;21.10;76.00
60287;DHT22;46141;52.382;5.270;2022-09-25T18:57:08;21.10;76.10
60287;DHT22;46141;52.382;5.270;2022-09-25T18:59:33;21.10;76.00
60287;DHT22;46141;52.382;5.270;2022-09-25T19:01:59;21.10;76.00
60287;DHT22;46141;52.382;5.270;2022-09-25T19:04:25;21.10;76.00